Time;durP1;ratioP1;P1;durP2;ratioP2;P2;SDS_P1;SDS_P2;PMS_P1;PMS_P2;Temp;Humidity;BMP_temperature;BMP_pressure;BME280_temperature;BME280_humidity;BME280_pressure;Samples;Min_cycle;Max_cycle;Signal;HPM_P1;HPM_P2
2021/07/03 00:02:28;;;;;;;6.53;5.93;;;29.50;48.10;;;;;;4791294;55;21488;-20
2021/07/03 00:07:29;;;;;;;6.62;6.03;;;29.50;48.10;;;;;;4785493;55;21093;-16
2021/07/03 00:12:30;;;;;;;6.78;6.20;;;29.50;48.30;;;;;;4764087;55;21070;-21
2021/07/03 00:17:30;;;;;;;7.07;6.37;;;29.50;48.30;;;;;;4738790;59;21030;-20
2021/07/03 00:22:31;;;;;;;7.07;6.37;;;29.50;48.40;;;;;;4738366;59;21984;-14
2021/07/03 00:27:32;;;;;;;6.95;6.35;;;29.50;48.50;;;;;;4741759;55;20990;-20
2021/07/03 00:32:34;;;;;;;6.55;6.00;;;29.50;48.60;;;;;;4757750;55;21064;-19
2021/07/03 00:37:35;;;;;;;6.78;6.18;;;29.50;48.50;;;;;;4737943;59;21005;-20
2021/07/03 00:42:35;;;;;;;6.82;6.22;;;29.50;48.50;;;;;;4751365;55;21066;-22
2021/07/03 00:47:37;;;;;;;6.65;6.05;;;29.50;48.60;;;;;;4740371;55;21021;-25
2021/07/03 00:52:39;;;;;;;6.43;5.80;;;29.50;48.70;;;;;;4771477;55;21069;-19
2021/07/03 00:57:42;;;;;;;6.68;6.07;;;29.50;48.60;;;;;;4766433;55;22024;-22
2021/07/03 01:02:43;;;;;;;6.35;5.75;;;29.50;48.60;;;;;;4776220;55;22250;-21
2021/07/03 01:07:44;;;;;;;5.93;5.45;;;29.50;48.70;;;;;;4743560;55;21588;-19
2021/07/03 01:12:45;;;;;;;6.25;5.65;;;29.50;48.70;;;;;;4862241;55;21033;-21
2021/07/03 01:17:46;;;;;;;6.25;5.65;;;29.50;48.70;;;;;;4777403;55;21000;-19
2021/07/03 01:22:48;;;;;;;6.10;5.60;;;29.50;48.80;;;;;;4777677;55;20986;-17
2021/07/03 01:28:04;;;;;;;6.07;5.57;;;29.50;48.80;;;;;;4744449;55;21089;-20
2021/07/03 01:33:05;;;;;;;5.80;5.30;;;29.50;48.80;;;;;;4778136;55;21572;-20
2021/07/03 01:38:08;;;;;;;6.12;5.62;;;29.50;49.00;;;;;;4737818;59;21066;-18
2021/07/03 01:43:09;;;;;;;7.00;5.32;;;29.50;49.00;;;;;;4803245;55;21030;-19
2021/07/03 01:48:10;;;;;;;5.95;5.40;;;29.50;48.80;;;;;;4748492;55;21002;-17
2021/07/03 01:53:11;;;;;;;6.20;5.60;;;29.50;48.80;;;;;;4737357;59;21034;-20
2021/07/03 01:58:21;;;;;;;5.90;5.40;;;29.50;48.80;;;;;;4750140;55;21530;-21
2021/07/03 02:03:25;;;;;;;6.28;5.68;;;29.50;49.00;;;;;;4741316;55;21595;-19
2021/07/03 02:08:26;;;;;;;6.10;5.60;;;29.50;49.00;;;;;;4838803;55;21460;-20
2021/07/03 02:13:28;;;;;;;5.70;5.20;;;29.50;49.00;;;;;;4770078;55;21049;-18
2021/07/03 02:18:29;;;;;;;5.80;5.30;;;29.50;48.90;;;;;;4752751;55;21010;-20
2021/07/03 02:23:30;;;;;;;6.05;5.45;;;29.50;49.00;;;;;;4782047;55;21066;-19
2021/07/03 02:28:31;;;;;;;5.70;5.20;;;29.50;49.10;;;;;;4738186;59;21097;-19
2021/07/03 02:33:34;;;;;;;5.75;5.25;;;29.50;49.10;;;;;;4778133;55;21026;-22
2021/07/03 02:38:35;;;;;;;5.28;4.87;;;29.50;49.20;;;;;;4737793;59;21066;-19
2021/07/03 02:43:36;;;;;;;5.75;5.07;;;29.50;49.10;;;;;;4759330;55;21065;-22
2021/07/03 02:48:37;;;;;;;5.37;4.87;;;29.50;49.00;;;;;;4738078;55;21044;-17
2021/07/03 02:53:37;;;;;;;5.40;5.00;;;29.50;49.00;;;;;;4780148;55;21527;-17
2021/07/03 02:58:38;;;;;;;5.75;5.18;;;29.50;49.20;;;;;;4755707;55;21050;-19
2021/07/03 03:03:43;;;;;;;5.40;4.90;;;29.50;49.20;;;;;;4778005;55;21049;-17
2021/07/03 03:08:44;;;;;;;5.47;4.97;;;29.50;49.20;;;;;;4740530;55;22176;-21
2021/07/03 03:13:45;;;;;;;5.50;5.00;;;29.50;49.00;;;;;;4780933;55;21540;-18
2021/07/03 03:18:45;;;;;;;5.12;4.72;;;29.50;49.20;;;;;;4743372;55;21070;-19
2021/07/03 03:23:46;;;;;;;5.43;4.93;;;29.50;49.00;;;;;;4739989;55;21540;-21
2021/07/03 03:28:47;;;;;;;4.95;4.55;;;29.50;49.00;;;;;;4769870;55;21687;-17
2021/07/03 03:33:48;;;;;;;5.53;5.00;;;29.50;49.00;;;;;;4748322;55;21090;-20
2021/07/03 03:38:49;;;;;;;5.45;4.90;;;29.50;48.70;;;;;;4749993;55;21001;-20
2021/07/03 03:43:52;;;;;;;5.25;4.43;;;29.50;48.70;;;;;;4757640;55;21014;-20
2021/07/03 03:48:54;;;;;;;4.78;4.37;;;29.50;48.70;;;;;;4738934;55;21472;-15
2021/07/03 03:53:55;;;;;;;5.43;4.93;;;29.40;48.80;;;;;;4737912;59;21105;-19
2021/07/03 03:58:55;;;;;;;5.40;4.90;;;29.40;48.40;;;;;;4749909;55;21006;-22
2021/07/03 04:03:56;;;;;;;5.07;4.57;;;29.40;48.70;;;;;;4737313;59;21157;-21
2021/07/03 04:08:57;;;;;;;5.40;4.90;;;29.50;48.80;;;;;;4756969;55;21536;-20
2021/07/03 04:13:58;;;;;;;4.70;4.30;;;29.40;48.60;;;;;;4755194;55;20974;-24
2021/07/03 04:18:59;;;;;;;4.80;4.30;;;29.40;48.70;;;;;;4747009;55;21014;-19
2021/07/03 04:23:59;;;;;;;5.80;4.78;;;29.40;48.60;;;;;;4750028;55;21272;-17
2021/07/03 04:29:00;;;;;;;5.18;4.68;;;29.40;48.60;;;;;;4777170;55;21034;-22
2021/07/03 04:34:01;;;;;;;5.32;4.70;;;29.40;48.20;;;;;;4752631;55;21497;-20
2021/07/03 04:39:03;;;;;;;5.00;4.60;;;29.40;48.40;;;;;;4740815;55;21034;-19
2021/07/03 04:44:06;;;;;;;5.55;4.90;;;29.40;48.40;;;;;;4750528;55;21105;-20
2021/07/03 04:49:07;;;;;;;5.10;4.60;;;29.40;48.20;;;;;;4762961;55;20985;-16
2021/07/03 04:54:08;;;;;;;6.18;5.00;;;29.40;48.30;;;;;;4804222;55;21002;-23
2021/07/03 04:59:09;;;;;;;5.53;5.03;;;29.40;48.30;;;;;;4737818;59;21919;-22
2021/07/03 05:04:12;;;;;;;6.00;5.05;;;29.40;48.00;;;;;;4750038;55;21074;-17
2021/07/03 05:09:13;;;;;;;5.87;5.00;;;29.40;48.10;;;;;;4746026;55;21029;-21
2021/07/03 05:14:14;;;;;;;5.93;4.78;;;29.40;48.10;;;;;;4738203;55;20994;-20
2021/07/03 05:19:15;;;;;;;6.45;4.82;;;29.40;48.10;;;;;;4765652;55;21006;-21
2021/07/03 05:24:16;;;;;;;7.35;5.00;;;29.40;48.10;;;;;;4749629;55;21472;-22
2021/07/03 05:29:17;;;;;;;6.30;5.22;;;29.40;47.90;;;;;;4738156;59;21070;-16
2021/07/03 05:34:18;;;;;;;6.50;5.80;;;29.40;48.10;;;;;;4783916;55;21014;-21
2021/07/03 05:39:18;;;;;;;6.87;5.15;;;29.40;48.10;;;;;;4773544;55;21025;-22
2021/07/03 05:44:20;;;;;;;5.70;5.05;;;29.30;47.90;;;;;;4749230;55;21002;-20
2021/07/03 05:49:21;;;;;;;6.78;5.40;;;29.30;48.00;;;;;;4901058;55;21539;-22
2021/07/03 05:54:22;;;;;;;6.05;5.45;;;29.40;47.90;;;;;;4755796;55;21101;-21
2021/07/03 05:59:23;;;;;;;6.55;5.30;;;29.30;47.70;;;;;;4741465;55;21070;-21
2021/07/03 06:04:24;;;;;;;5.62;5.07;;;29.30;47.60;;;;;;4737545;59;21073;-23
2021/07/03 06:09:24;;;;;;;6.60;5.30;;;29.30;47.60;;;;;;4744206;55;21503;-22
2021/07/03 06:14:25;;;;;;;6.05;5.45;;;29.30;47.80;;;;;;4745203;55;21002;-15
2021/07/03 06:19:26;;;;;;;5.97;5.37;;;29.30;47.70;;;;;;4750690;55;21096;-18
2021/07/03 06:24:27;;;;;;;6.68;5.47;;;29.30;47.60;;;;;;4750621;55;21006;-21
2021/07/03 06:29:28;;;;;;;6.47;5.03;;;29.30;47.60;;;;;;4739077;55;21054;-21
2021/07/03 06:34:29;;;;;;;7.32;5.47;;;29.30;48.30;;;;;;4744786;55;21061;-18
2021/07/03 06:39:30;;;;;;;7.37;5.68;;;29.30;47.70;;;;;;4765610;55;21073;-19
2021/07/03 06:44:30;;;;;;;6.03;5.43;;;29.30;47.60;;;;;;4739077;59;20982;-22
2021/07/03 06:49:31;;;;;;;8.07;5.60;;;29.30;47.80;;;;;;4754840;55;21017;-19
2021/07/03 06:54:32;;;;;;;7.00;5.60;;;29.30;47.50;;;;;;4761699;55;21089;-23
2021/07/03 06:59:33;;;;;;;6.37;5.70;;;29.30;47.50;;;;;;4738558;55;21061;-22
2021/07/03 07:04:34;;;;;;;6.72;5.37;;;29.30;47.70;;;;;;4770934;55;21552;-22
2021/07/03 07:09:34;;;;;;;6.78;5.22;;;29.30;47.50;;;;;;4757353;55;21046;-21
2021/07/03 07:14:36;;;;;;;7.12;5.45;;;29.30;47.60;;;;;;4744189;55;21046;-18
2021/07/03 07:19:39;;;;;;;6.30;5.70;;;29.30;47.70;;;;;;4738434;57;21608;-19
2021/07/03 07:24:41;;;;;;;6.87;5.72;;;29.30;47.60;;;;;;4740262;55;21116;-20
2021/07/03 07:29:42;;;;;;;8.10;5.87;;;29.30;47.70;;;;;;4778832;55;21608;-23
2021/07/03 07:34:43;;;;;;;7.95;5.68;;;29.30;47.70;;;;;;4739881;55;21069;-21
2021/07/03 07:39:44;;;;;;;6.18;5.50;;;29.30;47.60;;;;;;4738285;59;21496;-22
2021/07/03 07:44:45;;;;;;;7.65;5.62;;;29.30;47.50;;;;;;4759752;55;21457;-21
2021/07/03 07:49:46;;;;;;;6.65;5.80;;;29.20;47.60;;;;;;4757604;55;21013;-20
2021/07/03 07:54:46;;;;;;;6.55;5.70;;;29.30;47.70;;;;;;4737111;59;21029;-18
2021/07/03 07:59:48;;;;;;;7.68;5.80;;;29.20;47.70;;;;;;4753294;55;21496;-22
2021/07/03 08:04:50;;;;;;;6.35;5.47;;;29.20;47.60;;;;;;4741158;55;21093;-20
2021/07/03 08:09:51;;;;;;;6.35;5.70;;;29.20;47.60;;;;;;4738329;59;21094;-21
2021/07/03 08:14:52;;;;;;;7.35;6.07;;;29.20;47.60;;;;;;4755564;55;21065;-22
2021/07/03 08:19:53;;;;;;;6.95;6.25;;;29.20;47.60;;;;;;4759287;55;21022;-20
2021/07/03 08:24:53;;;;;;;7.50;6.15;;;29.20;47.80;;;;;;4740109;55;20998;-19
2021/07/03 08:29:54;;;;;;;8.27;6.32;;;29.20;47.80;;;;;;4752157;55;21029;-20
2021/07/03 08:34:55;;;;;;;6.32;5.70;;;29.20;47.70;;;;;;4756010;55;21006;-17
2021/07/03 08:39:56;;;;;;;8.73;6.40;;;29.20;47.70;;;;;;4737962;55;20994;-14
2021/07/03 08:44:57;;;;;;;9.40;6.62;;;29.20;47.70;;;;;;4752003;55;21476;-21
2021/07/03 08:50:01;;;;;;;8.73;6.40;;;29.20;47.80;;;;;;4753364;55;21460;-16
2021/07/03 08:55:16;;;;;;;7.55;6.60;;;29.20;47.70;;;;;;4738026;55;21520;-21
2021/07/03 09:00:33;;;;;;;7.57;6.57;;;29.20;47.70;;;;;;4764559;55;21119;-21
2021/07/03 09:05:34;;;;;;;7.97;6.60;;;29.20;47.80;;;;;;4739156;55;21054;-21
2021/07/03 09:10:39;;;;;;;8.27;7.00;;;29.20;47.70;;;;;;4770292;55;21046;-22
2021/07/03 09:15:43;;;;;;;8.05;6.60;;;29.20;47.80;;;;;;4744288;55;21066;-16
2021/07/03 09:20:54;;;;;;;7.28;6.45;;;29.20;47.80;;;;;;4741221;55;21025;-22
2021/07/03 09:26:04;;;;;;;8.35;6.87;;;29.20;47.90;;;;;;4740865;55;21018;-22
2021/07/03 09:31:11;;;;;;;7.80;7.00;;;29.20;47.80;;;;;;4738901;55;21026;-18
2021/07/03 09:36:14;;;;;;;7.70;6.90;;;29.20;47.80;;;;;;4739066;55;21010;-22
2021/07/03 09:41:28;;;;;;;8.55;7.62;;;29.20;47.90;;;;;;4802051;55;21065;-20
2021/07/03 09:46:34;;;;;;;9.10;7.93;;;29.20;47.80;;;;;;4772173;55;21587;-19
2021/07/03 09:51:45;;;;;;;;;;;29.20;47.80;;;;;;4749275;55;21481;-20
2021/07/03 09:56:47;;;;;;;8.93;7.57;;;29.20;47.80;;;;;;4760645;55;20092;-24
2021/07/03 10:01:48;;;;;;;9.10;7.97;;;29.20;48.00;;;;;;4738360;55;21117;-21
2021/07/03 10:07:11;;;;;;;8.68;7.25;;;29.20;47.80;;;;;;4736281;59;21042;-20
2021/07/03 10:12:16;;;;;;;8.10;7.28;;;29.20;47.90;;;;;;4746078;55;21117;-20
2021/07/03 10:17:25;;;;;;;10.27;8.07;;;29.20;47.90;;;;;;4781087;55;21022;-22
2021/07/03 10:22:31;;;;;;;8.85;7.57;;;29.20;47.90;;;;;;4738644;59;21061;-20
2021/07/03 10:27:32;;;;;;;10.18;8.05;;;29.20;48.00;;;;;;4738012;59;21001;-15
2021/07/03 10:32:36;;;;;;;8.00;7.20;;;29.20;47.80;;;;;;4768683;55;21596;-21
2021/07/03 10:37:37;;;;;;;9.55;8.55;;;29.20;47.80;;;;;;4775376;55;20994;-19
2021/07/03 10:42:38;;;;;;;10.18;8.35;;;29.20;47.80;;;;;;4739016;55;21505;-20
2021/07/03 10:47:39;;;;;;;9.13;7.95;;;29.20;47.90;;;;;;4765590;55;21046;-20
2021/07/03 10:52:40;;;;;;;9.57;8.65;;;29.20;47.80;;;;;;4738809;55;21014;-22
2021/07/03 10:57:45;;;;;;;9.43;8.52;;;29.20;47.80;;;;;;4737954;59;21014;-16
2021/07/03 11:02:46;;;;;;;10.25;8.40;;;29.20;47.90;;;;;;4737193;59;21997;-19
2021/07/03 11:07:47;;;;;;;9.73;8.32;;;29.20;47.90;;;;;;4738684;55;21009;-18
2021/07/03 11:12:59;;;;;;;9.10;8.10;;;29.20;47.90;;;;;;4783199;55;21013;-18
2021/07/03 11:18:04;;;;;;;10.20;8.20;;;29.20;47.90;;;;;;4767447;55;21074;-17
2021/07/03 11:23:07;;;;;;;9.27;8.23;;;29.20;47.90;;;;;;4738634;59;21210;-18
2021/07/03 11:28:19;;;;;;;9.60;8.32;;;29.20;47.90;;;;;;4758665;55;21042;-15
2021/07/03 11:33:20;;;;;;;9.70;8.57;;;29.20;47.90;;;;;;4765707;55;21551;-19
2021/07/03 11:38:23;;;;;;;10.93;9.23;;;29.20;47.90;;;;;;4738223;59;21073;-18
2021/07/03 11:43:26;;;;;;;10.30;9.27;;;29.20;47.80;;;;;;4772252;55;21552;-18
2021/07/03 11:48:27;;;;;;;9.27;8.38;;;29.20;47.90;;;;;;4783882;55;21045;-21
2021/07/03 11:53:31;;;;;;;10.27;8.43;;;29.20;47.80;;;;;;4755269;55;21923;-18
2021/07/03 11:58:34;;;;;;;9.65;8.65;;;29.20;47.90;;;;;;4761425;55;21512;-21
2021/07/03 12:03:36;;;;;;;10.95;9.32;;;29.20;47.90;;;;;;4740910;55;21010;-23
2021/07/03 12:08:41;;;;;;;10.40;9.30;;;29.20;47.80;;;;;;4769259;55;21002;-22
2021/07/03 12:13:47;;;;;;;10.50;9.27;;;29.20;47.80;;;;;;4749793;55;21532;-20
2021/07/03 12:18:56;;;;;;;11.50;9.45;;;29.20;47.90;;;;;;4758529;55;21085;-22
2021/07/03 12:24:15;;;;;;;13.52;10.20;;;29.20;47.90;;;;;;4806390;55;21450;-23
2021/07/03 12:29:23;;;;;;;10.63;9.63;;;29.20;47.90;;;;;;4769511;55;21121;-21
2021/07/03 12:34:25;;;;;;;10.82;9.52;;;29.20;47.80;;;;;;4805854;55;22267;-21
2021/07/03 12:39:28;;;;;;;10.57;9.45;;;29.20;47.90;;;;;;4744839;55;22232;-21
2021/07/03 12:44:43;;;;;;;10.80;9.70;;;29.20;47.80;;;;;;4780913;55;21054;-19
2021/07/03 12:49:48;;;;;;;10.90;9.80;;;29.20;48.50;;;;;;4783060;55;21073;-19
2021/07/03 12:54:56;;;;;;;10.43;9.02;;;29.20;47.80;;;;;;4776535;55;21065;-21
2021/07/03 13:00:00;;;;;;;11.18;9.68;;;29.20;47.90;;;;;;4745510;55;20962;-20
2021/07/03 13:05:02;;;;;;;10.43;9.43;;;29.20;47.80;;;;;;4765086;55;21508;-20
2021/07/03 13:10:04;;;;;;;11.02;9.93;;;29.20;47.80;;;;;;4763528;55;20997;-18
2021/07/03 13:15:05;;;;;;;10.60;9.60;;;29.20;47.90;;;;;;4788650;55;21050;-19
2021/07/03 13:20:07;;;;;;;12.13;9.50;;;29.20;47.90;;;;;;4757398;55;21718;-20
2021/07/03 13:25:09;;;;;;;11.20;9.25;;;29.20;47.90;;;;;;4762422;55;21092;-18
2021/07/03 13:30:11;;;;;;;10.73;9.68;;;29.20;48.00;;;;;;4738393;59;21073;-18
2021/07/03 13:35:15;;;;;;;11.23;10.07;;;29.20;47.90;;;;;;4750951;55;21061;-21
2021/07/03 13:40:16;;;;;;;10.55;9.55;;;29.20;47.90;;;;;;4761920;55;21017;-20
2021/07/03 13:45:16;;;;;;;10.43;9.50;;;29.20;47.80;;;;;;4738576;59;21009;-21
2021/07/03 13:50:17;;;;;;;10.60;9.50;;;29.20;47.90;;;;;;4746230;55;21002;-19
2021/07/03 13:55:19;;;;;;;10.77;9.68;;;29.20;47.90;;;;;;4738476;55;21809;-18
2021/07/03 14:00:20;;;;;;;10.68;9.57;;;29.20;48.00;;;;;;4749821;55;21010;-21
2021/07/03 14:05:21;;;;;;;11.88;10.23;;;29.20;47.90;;;;;;4747480;55;21085;-22
2021/07/03 14:10:22;;;;;;;10.55;9.45;;;29.20;48.00;;;;;;4773504;55;21639;-21
2021/07/03 14:15:23;;;;;;;10.20;9.05;;;29.20;48.00;;;;;;4741404;55;21086;-19
2021/07/03 14:20:24;;;;;;;10.57;9.48;;;29.20;47.90;;;;;;4749551;55;21069;-22
2021/07/03 14:25:25;;;;;;;10.52;8.85;;;29.20;47.90;;;;;;4748485;55;21144;-17
2021/07/03 14:30:26;;;;;;;10.05;9.05;;;29.20;48.00;;;;;;4757241;55;21065;-23
2021/07/03 14:35:27;;;;;;;10.18;8.95;;;29.20;48.00;;;;;;4749001;55;21003;-22
2021/07/03 14:40:28;;;;;;;9.45;8.45;;;29.20;48.00;;;;;;4746413;55;21026;-19
2021/07/03 14:45:28;;;;;;;10.27;9.23;;;29.20;48.00;;;;;;4764000;55;21005;-20
2021/07/03 14:50:34;;;;;;;9.82;8.60;;;29.20;48.00;;;;;;4764151;55;21034;-19
2021/07/03 14:55:34;;;;;;;10.77;9.18;;;29.20;48.00;;;;;;4737781;59;21571;-21
2021/07/03 15:00:35;;;;;;;9.73;8.70;;;29.20;48.10;;;;;;4738762;55;21056;-21
2021/07/03 15:05:36;;;;;;;11.00;8.70;;;29.20;48.10;;;;;;4784305;55;21050;-23
2021/07/03 15:10:37;;;;;;;9.75;8.75;;;29.20;47.90;;;;;;4746793;55;21002;-22
2021/07/03 15:15:38;;;;;;;9.38;8.40;;;29.20;48.00;;;;;;4763205;55;21105;-21
2021/07/03 15:20:39;;;;;;;9.55;8.55;;;29.20;48.00;;;;;;4738376;55;21013;-21
2021/07/03 15:25:40;;;;;;;9.43;8.52;;;29.20;47.90;;;;;;4772672;55;20995;-20
2021/07/03 15:30:41;;;;;;;9.40;8.32;;;29.20;48.00;;;;;;4738554;59;21461;-17
2021/07/03 15:35:43;;;;;;;8.93;8.02;;;29.20;47.90;;;;;;4745883;55;21030;-20
2021/07/03 15:40:45;;;;;;;10.95;8.48;;;29.20;48.40;;;;;;4797966;55;21046;-20
2021/07/03 15:45:50;;;;;;;9.05;8.15;;;29.20;47.90;;;;;;4744411;55;21082;-20
2021/07/03 15:50:51;;;;;;;9.40;8.38;;;29.20;48.00;;;;;;4764888;55;21006;-19
2021/07/03 15:55:52;;;;;;;9.15;8.25;;;29.20;48.00;;;;;;4775247;55;21069;-20
2021/07/03 16:00:55;;;;;;;8.85;7.95;;;29.20;48.00;;;;;;4738530;59;21061;-17
2021/07/03 16:05:56;;;;;;;9.00;8.10;;;29.20;48.10;;;;;;4738129;59;21675;-17
2021/07/03 16:10:57;;;;;;;8.90;8.00;;;29.20;48.00;;;;;;4747561;55;20994;-18
2021/07/03 16:15:58;;;;;;;9.20;8.30;;;29.20;48.00;;;;;;4758575;55;21061;-18
2021/07/03 16:21:02;;;;;;;8.55;7.62;;;29.20;48.00;;;;;;4737378;59;21515;-15
2021/07/03 16:26:03;;;;;;;9.18;8.18;;;29.20;48.00;;;;;;4768491;55;21109;-16
2021/07/03 16:31:03;;;;;;;9.02;8.13;;;29.20;48.00;;;;;;4771105;55;21556;-18
2021/07/03 16:36:04;;;;;;;9.15;8.07;;;29.20;48.00;;;;;;4759691;55;21014;-23
2021/07/03 16:41:09;;;;;;;9.10;8.00;;;29.20;48.00;;;;;;4737196;59;21085;-18
2021/07/03 16:46:10;;;;;;;9.05;8.25;;;29.20;48.80;;;;;;4738479;59;21528;-24
2021/07/03 16:51:12;;;;;;;9.10;8.20;;;29.20;48.60;;;;;;4747266;55;20997;-17
2021/07/03 16:56:13;;;;;;;8.63;7.82;;;29.20;48.00;;;;;;4750021;55;21062;-22
2021/07/03 17:01:17;;;;;;;8.77;7.93;;;29.20;48.00;;;;;;4752066;55;20982;-21
2021/07/03 17:06:18;;;;;;;9.55;8.57;;;29.20;47.90;;;;;;4756305;55;21091;-21
2021/07/03 17:11:18;;;;;;;8.63;7.82;;;29.20;47.90;;;;;;4773734;55;21070;-18
2021/07/03 17:16:21;;;;;;;9.07;8.18;;;29.20;47.90;;;;;;4773202;55;21057;-20
2021/07/03 17:21:22;;;;;;;9.05;8.15;;;29.20;48.00;;;;;;4738394;55;21484;-18
2021/07/03 17:26:23;;;;;;;8.70;7.80;;;29.20;47.80;;;;;;4755931;55;21022;-21
2021/07/03 17:31:23;;;;;;;8.60;7.70;;;29.20;47.90;;;;;;4748094;55;21005;-21
2021/07/03 17:36:24;;;;;;;9.85;7.60;;;29.20;47.80;;;;;;4760228;55;21548;-24
2021/07/03 17:41:25;;;;;;;8.32;7.45;;;29.20;47.90;;;;;;4739764;55;20990;-20
2021/07/03 17:46:26;;;;;;;7.68;6.93;;;29.20;47.80;;;;;;4773524;55;21529;-18
2021/07/03 17:51:29;;;;;;;8.15;7.35;;;29.20;47.80;;;;;;4737847;59;21046;-18
2021/07/03 17:56:30;;;;;;;7.62;6.93;;;29.20;48.00;;;;;;4741621;55;21592;-21
2021/07/03 18:01:31;;;;;;;8.57;7.28;;;29.20;47.90;;;;;;4737999;59;21030;-20
2021/07/03 18:06:32;;;;;;;9.45;8.20;;;29.20;47.90;;;;;;4744884;55;21156;-22
2021/07/03 18:11:35;;;;;;;8.65;7.50;;;29.20;47.90;;;;;;4754299;55;21054;-23
2021/07/03 18:16:36;;;;;;;7.82;7.03;;;29.20;47.80;;;;;;4774814;55;21508;-18
2021/07/03 18:21:37;;;;;;;8.18;7.37;;;29.20;47.90;;;;;;4791344;55;21058;-21
2021/07/03 18:26:40;;;;;;;8.43;7.62;;;29.20;47.90;;;;;;4743136;55;21002;-16
2021/07/03 18:31:41;;;;;;;8.27;7.47;;;29.20;47.90;;;;;;4765779;55;21479;-21
2021/07/03 18:36:41;;;;;;;8.20;7.40;;;29.20;48.00;;;;;;4757849;55;21066;-18
2021/07/03 18:41:43;;;;;;;8.68;7.75;;;29.20;47.90;;;;;;4752731;55;21456;-21
2021/07/03 18:46:44;;;;;;;8.85;7.68;;;29.20;47.90;;;;;;4765795;55;21001;-24
2021/07/03 18:51:45;;;;;;;8.13;7.32;;;29.20;48.00;;;;;;4764643;55;21002;-20
2021/07/03 18:56:46;;;;;;;8.60;7.40;;;29.20;48.00;;;;;;4763122;55;20990;-24
2021/07/03 19:01:47;;;;;;;8.07;7.28;;;29.20;48.00;;;;;;4740818;55;21018;-23
2021/07/03 19:06:48;;;;;;;9.07;7.90;;;29.20;48.10;;;;;;4782940;55;21105;-19
2021/07/03 19:11:49;;;;;;;9.10;7.93;;;29.20;48.10;;;;;;4749634;55;21073;-22
2021/07/03 19:16:49;;;;;;;8.85;7.65;;;29.20;48.10;;;;;;4748935;55;21093;-19
2021/07/03 19:21:50;;;;;;;9.32;8.30;;;29.20;48.10;;;;;;4738017;56;21540;-18
2021/07/03 19:26:51;;;;;;;9.77;8.45;;;29.20;48.20;;;;;;4770349;55;21089;-21
2021/07/03 19:31:52;;;;;;;9.68;8.68;;;29.20;48.10;;;;;;4751360;55;21124;-20
2021/07/03 19:36:54;;;;;;;8.93;8.02;;;29.20;48.30;;;;;;4741110;55;21100;-22
2021/07/03 19:41:55;;;;;;;9.13;8.23;;;29.20;48.30;;;;;;4738742;55;21607;-20
2021/07/03 19:46:56;;;;;;;10.07;8.35;;;29.20;48.30;;;;;;4750440;55;21086;-20
2021/07/03 19:51:57;;;;;;;9.25;7.68;;;29.10;48.30;;;;;;4743687;55;21066;-22
2021/07/03 19:57:03;;;;;;;8.65;7.85;;;29.10;48.20;;;;;;4744569;55;21053;-22
2021/07/03 20:02:04;;;;;;;9.18;8.27;;;29.10;48.30;;;;;;4749802;55;21528;-18
2021/07/03 20:07:05;;;;;;;9.40;8.40;;;29.10;48.50;;;;;;4781276;55;21058;-20
2021/07/03 20:12:08;;;;;;;9.00;8.07;;;29.10;48.40;;;;;;4787958;55;21506;-16
2021/07/03 20:17:08;;;;;;;9.45;8.20;;;29.20;48.50;;;;;;4745315;55;21116;-18
2021/07/03 20:22:09;;;;;;;8.95;7.82;;;29.10;48.50;;;;;;4737957;59;21013;-18
2021/07/03 20:27:10;;;;;;;10.68;8.13;;;29.10;48.50;;;;;;4764846;55;21472;-19
2021/07/03 20:32:11;;;;;;;8.88;8.00;;;29.10;48.40;;;;;;4760847;55;21090;-18
2021/07/03 20:37:15;;;;;;;9.70;8.30;;;29.10;48.40;;;;;;4738325;59;21532;-19
2021/07/03 20:42:15;;;;;;;9.25;8.30;;;29.10;48.50;;;;;;4758403;55;21041;-20
2021/07/03 20:47:17;;;;;;;8.57;7.62;;;29.20;48.50;;;;;;4769981;55;21069;-18
2021/07/03 20:52:18;;;;;;;9.02;8.07;;;29.10;48.60;;;;;;4786934;55;21560;-16
2021/07/03 20:57:19;;;;;;;8.85;7.95;;;29.10;48.60;;;;;;4783916;55;21085;-17
2021/07/03 21:02:20;;;;;;;8.30;7.45;;;29.10;48.60;;;;;;4756994;55;21437;-21
2021/07/03 21:07:24;;;;;;;8.85;7.85;;;29.10;48.60;;;;;;4757211;55;21086;-24
2021/07/03 21:12:25;;;;;;;8.57;7.78;;;29.10;48.60;;;;;;4786396;55;21022;-21
2021/07/03 21:17:25;;;;;;;8.68;7.75;;;29.10;48.60;;;;;;4796439;55;21501;-17
2021/07/03 21:22:29;;;;;;;8.50;7.70;;;29.10;48.60;;;;;;4741765;55;21081;-23
2021/07/03 21:27:30;;;;;;;8.13;7.32;;;29.10;48.80;;;;;;4754034;55;21077;-17
2021/07/03 21:32:31;;;;;;;8.57;7.57;;;29.10;48.70;;;;;;4746102;55;21066;-20
2021/07/03 21:37:32;;;;;;;8.25;7.30;;;29.10;48.70;;;;;;4802258;55;22044;-20
2021/07/03 21:42:33;;;;;;;8.27;7.37;;;29.10;48.70;;;;;;4803871;55;21002;-23
2021/07/03 21:47:34;;;;;;;8.43;7.40;;;29.10;48.70;;;;;;4748134;55;21077;-22
2021/07/03 21:52:35;;;;;;;7.37;6.68;;;29.10;48.80;;;;;;4803581;55;21469;-22
2021/07/03 21:57:36;;;;;;;8.25;7.32;;;29.10;48.90;;;;;;4760986;55;21536;-21
2021/07/03 22:02:37;;;;;;;8.30;7.50;;;29.10;48.90;;;;;;4737736;55;21148;-20
2021/07/03 22:07:38;;;;;;;8.07;7.25;;;29.10;48.90;;;;;;4738930;55;21345;-22
2021/07/03 22:12:39;;;;;;;8.10;7.30;;;29.10;49.00;;;;;;4751539;55;21009;-19
2021/07/03 22:17:40;;;;;;;7.85;7.10;;;29.10;49.00;;;;;;4760399;55;21057;-21
2021/07/03 22:22:41;;;;;;;8.02;7.25;;;29.10;49.00;;;;;;4777849;55;21121;-20
2021/07/03 22:27:52;;;;;;;8.27;7.30;;;29.10;49.20;;;;;;4738858;55;21081;-21
2021/07/03 22:32:56;;;;;;;8.25;7.03;;;29.10;49.00;;;;;;4770702;55;21006;-18
2021/07/03 22:37:57;;;;;;;7.28;6.57;;;29.10;49.10;;;;;;4756921;55;21049;-18
2021/07/03 22:42:58;;;;;;;7.95;7.25;;;29.10;49.20;;;;;;4784854;55;21056;-21
2021/07/03 22:47:59;;;;;;;7.28;6.55;;;29.10;49.30;;;;;;4800883;55;21053;-20
2021/07/03 22:53:01;;;;;;;7.70;6.78;;;29.10;49.40;;;;;;4753935;55;21010;-19
2021/07/03 22:58:02;;;;;;;8.00;7.00;;;29.10;49.30;;;;;;4751320;55;21114;-21
2021/07/03 23:03:05;;;;;;;7.85;7.05;;;29.10;49.40;;;;;;4738027;56;22328;-22
2021/07/03 23:08:12;;;;;;;7.87;7.07;;;29.10;49.40;;;;;;4753905;55;21022;-18
2021/07/03 23:13:12;;;;;;;7.30;6.60;;;29.10;49.40;;;;;;4771825;55;21054;-21
2021/07/03 23:18:14;;;;;;;7.50;6.80;;;29.10;49.40;;;;;;4738211;55;21496;-15
2021/07/03 23:23:18;;;;;;;7.30;6.60;;;29.10;50.10;;;;;;4764655;55;21062;-19
2021/07/03 23:28:21;;;;;;;7.55;6.85;;;29.10;49.50;;;;;;4737404;59;21070;-17
2021/07/03 23:33:22;;;;;;;7.10;6.40;;;29.10;50.10;;;;;;4784764;55;21116;-18
2021/07/03 23:38:23;;;;;;;7.53;6.82;;;29.10;49.60;;;;;;4777948;55;21014;-19
2021/07/03 23:43:24;;;;;;;6.32;5.72;;;29.10;49.60;;;;;;4744211;55;21022;-17
2021/07/03 23:48:26;;;;;;;6.90;6.20;;;29.10;49.80;;;;;;4778433;55;21018;-22
2021/07/03 23:53:28;;;;;;;7.90;7.07;;;29.10;49.70;;;;;;4782624;55;21501;-18
2021/07/03 23:58:29;;;;;;;7.47;6.68;;;29.10;49.70;;;;;;4743321;55;22148;-19
